Time,TemperatureF,DewpointF,PressureIn,WindDirection,WindDirectionDegrees,WindSpeedMPH,WindSpeedGustMPH,Humidity,HourlyPrecipIn,Conditions,Clouds,dailyrainin,SoftwareType,DateUTC
2013-03-15 00:03:00,41.0,25.2,30.02,West,270,0.0,-999.0,53,-99.99,,,0.00,Acu-Link.com,2013-03-15 04:03:00,
2013-03-15 00:19:00,40.8,24.6,30.02,WNW,292,0.0,-999.0,52,-99.99,,,0.00,Acu-Link.com,2013-03-15 04:19:00,
2013-03-15 00:34:00,41.9,25.6,30.01,NW,315,0.0,-999.0,52,-99.99,,,0.00,Acu-Link.com,2013-03-15 04:34:00,
2013-03-15 00:49:00,42.6,26.7,30.01,NNW,337,0.0,-999.0,53,-99.99,,,0.00,Acu-Link.com,2013-03-15 04:49:00,
2013-03-15 01:05:00,41.9,26.0,30.00,ENE,67,0.0,-999.0,53,-99.99,,,0.00,Acu-Link.com,2013-03-15 05:05:00,
2013-03-15 01:20:00,41.0,26.1,30.00,West,270,0.0,-999.0,55,-99.99,,,0.00,Acu-Link.com,2013-03-15 05:20:00,
2013-03-15 01:35:00,40.3,26.7,30.00,South,180,0.0,-999.0,58,-99.99,,,0.00,Acu-Link.com,2013-03-15 05:35:00,
2013-03-15 01:50:00,39.7,27.0,30.00,South,180,0.0,-999.0,60,-99.99,,,0.00,Acu-Link.com,2013-03-15 05:50:00,
2013-03-15 02:05:00,39.0,27.5,30.00,South,180,0.0,-999.0,63,-99.99,,,0.00,Acu-Link.com,2013-03-15 06:05:00,
2013-03-15 02:21:00,37.9,28.3,30.02,SW,225,0.0,-999.0,68,-99.99,,,0.00,Acu-Link.com,2013-03-15 06:21:00,
2013-03-15 02:51:00,37.2,28.3,30.02,SSW,202,0.0,-999.0,70,-99.99,,,0.00,Acu-Link.com,2013-03-15 06:51:00,
2013-03-15 03:06:00,37.0,28.1,30.01,South,180,0.0,-999.0,70,-99.99,,,0.00,Acu-Link.com,2013-03-15 07:06:00,
2013-03-15 03:22:00,38.1,29.5,30.00,SSE,157,1.7,-999.0,71,-99.99,,,0.00,Acu-Link.com,2013-03-15 07:22:00,
2013-03-15 03:37:00,36.5,29.3,30.00,NW,315,0.0,-999.0,75,-99.99,,,0.00,Acu-Link.com,2013-03-15 07:37:00,
2013-03-15 03:52:00,36.1,29.3,29.99,NNE,22,0.0,-999.0,76,-99.99,,,0.00,Acu-Link.com,2013-03-15 07:52:00,
2013-03-15 04:07:00,35.2,29.4,30.00,North,0,0.0,-999.0,79,-99.99,,,0.00,Acu-Link.com,2013-03-15 08:07:00,
2013-03-15 04:23:00,34.9,29.4,30.00,West,270,0.0,-999.0,80,-99.99,,,0.00,Acu-Link.com,2013-03-15 08:23:00,
2013-03-15 04:38:00,34.3,29.1,30.00,East,90,0.0,-999.0,81,-99.99,,,0.00,Acu-Link.com,2013-03-15 08:38:00,
2013-03-15 04:53:00,33.8,29.2,30.01,North,0,0.0,-999.0,83,-99.99,,,0.00,Acu-Link.com,2013-03-15 08:53:00,
2013-03-15 05:08:00,33.1,28.8,30.00,West,270,0.0,-999.0,84,-99.99,,,0.00,Acu-Link.com,2013-03-15 09:08:00,
2013-03-15 05:24:00,32.7,28.7,30.01,NW,315,0.0,-999.0,85,-99.99,,,0.00,Acu-Link.com,2013-03-15 09:24:00,
2013-03-15 05:39:00,32.2,28.5,30.00,SW,225,0.0,-999.0,86,-99.99,,,0.00,Acu-Link.com,2013-03-15 09:39:00,
2013-03-15 05:54:00,31.8,28.1,30.00,SSW,202,0.0,-999.0,86,-99.99,,,0.00,Acu-Link.com,2013-03-15 09:54:00,
2013-03-15 06:09:00,31.8,28.7,29.99,SSW,202,0.0,-999.0,88,-99.99,,,0.00,Acu-Link.com,2013-03-15 10:09:00,
2013-03-15 06:24:00,32.2,29.3,29.99,NNE,22,0.0,-999.0,89,-99.99,,,0.00,Acu-Link.com,2013-03-15 10:24:00,
2013-03-15 06:40:00,31.1,28.2,30.00,NNE,22,0.0,-999.0,89,-99.99,,,0.00,Acu-Link.com,2013-03-15 10:40:00,
2013-03-15 06:55:00,31.1,28.5,30.00,WNW,292,0.0,-999.0,90,-99.99,,,0.00,Acu-Link.com,2013-03-15 10:55:00,
2013-03-15 07:10:00,30.9,28.6,30.00,West,270,0.0,-999.0,91,-99.99,,,0.00,Acu-Link.com,2013-03-15 11:10:00,
2013-03-15 07:25:00,31.1,29.1,30.01,West,270,0.0,-999.0,92,-99.99,,,0.00,Acu-Link.com,2013-03-15 11:25:00,
2013-03-15 07:41:00,31.1,29.1,30.00,WNW,292,0.0,-999.0,92,-99.99,,,0.00,Acu-Link.com,2013-03-15 11:41:00,
2013-03-15 07:56:00,30.9,28.9,30.00,West,270,0.0,-999.0,92,-99.99,,,0.00,Acu-Link.com,2013-03-15 11:56:00,
2013-03-15 08:11:00,31.1,29.3,30.01,West,270,0.0,-999.0,93,-99.99,,,0.00,Acu-Link.com,2013-03-15 12:11:00,
2013-03-15 08:27:00,31.5,29.7,30.01,WSW,247,0.0,-999.0,93,-99.99,,,0.00,Acu-Link.com,2013-03-15 12:27:00,
2013-03-15 08:42:00,31.6,29.8,30.01,NNW,337,0.0,-999.0,93,-99.99,,,0.00,Acu-Link.com,2013-03-15 12:42:00,
2013-03-15 08:57:00,32.9,31.1,30.01,SSE,157,0.0,-999.0,93,-99.99,,,0.00,Acu-Link.com,2013-03-15 12:57:00,
2013-03-15 09:12:00,34.3,32.8,30.01,East,90,0.0,-999.0,94,-99.99,,,0.00,Acu-Link.com,2013-03-15 13:12:00,
2013-03-15 09:28:00,37.9,36.6,30.01,ESE,112,0.0,-999.0,95,-99.99,,,0.00,Acu-Link.com,2013-03-15 13:28:00,
2013-03-15 09:43:00,45.7,38.6,30.01,WNW,292,0.0,-999.0,76,-99.99,,,0.00,Acu-Link.com,2013-03-15 13:43:00,
2013-03-15 09:58:00,48.4,37.6,30.00,SW,225,2.7,-999.0,66,-99.99,,,0.00,Acu-Link.com,2013-03-15 13:58:00,
2013-03-15 10:14:00,50.2,36.9,30.00,SW,225,2.7,-999.0,60,-99.99,,,0.00,Acu-Link.com,2013-03-15 14:14:00,
2013-03-15 10:29:00,51.3,35.7,30.00,West,270,3.2,-999.0,55,-99.99,,,0.00,Acu-Link.com,2013-03-15 14:29:00,
2013-03-15 10:47:00,54.7,36.9,30.00,SSW,202,2.7,-999.0,51,-99.99,,,0.00,Acu-Link.com,2013-03-15 14:47:00,
2013-03-15 11:03:00,56.7,36.7,29.98,WSW,247,4.2,-999.0,47,-99.99,,,0.00,Acu-Link.com,2013-03-15 15:03:00,
2013-03-15 11:18:00,58.1,36.9,29.98,WSW,247,3.2,-999.0,45,-99.99,,,0.00,Acu-Link.com,2013-03-15 15:18:00,
2013-03-15 11:33:00,59.7,37.8,29.98,WSW,247,3.7,-999.0,44,-99.99,,,0.00,Acu-Link.com,2013-03-15 15:33:00,
2013-03-15 11:48:00,60.4,37.8,29.97,WNW,292,2.7,-999.0,43,-99.99,,,0.00,Acu-Link.com,2013-03-15 15:48:00,
2013-03-15 12:03:00,61.3,38.6,29.96,NNW,337,4.7,-999.0,43,-99.99,,,0.00,Acu-Link.com,2013-03-15 16:03:00,
2013-03-15 12:19:00,62.8,39.4,29.95,SW,225,3.2,-999.0,42,-99.99,,,0.00,Acu-Link.com,2013-03-15 16:19:00,
2013-03-15 12:34:00,64.4,40.8,29.95,WNW,292,3.7,-999.0,42,-99.99,,,0.00,Acu-Link.com,2013-03-15 16:34:00,
2013-03-15 12:49:00,64.6,40.4,29.94,SW,225,2.7,-999.0,41,-99.99,,,0.00,Acu-Link.com,2013-03-15 16:49:00,
2013-03-15 13:04:00,66.0,41.0,29.93,SW,225,4.7,-999.0,40,-99.99,,,0.00,Acu-Link.com,2013-03-15 17:04:00,
2013-03-15 13:20:00,66.4,41.3,29.92,NNW,337,4.2,-999.0,40,-99.99,,,0.00,Acu-Link.com,2013-03-15 17:20:00,
2013-03-15 13:35:00,67.8,42.6,29.92,West,270,4.7,-999.0,40,-99.99,,,0.00,Acu-Link.com,2013-03-15 17:35:00,
2013-03-15 13:50:00,68.2,43.6,29.90,West,270,4.2,-999.0,41,-99.99,,,0.00,Acu-Link.com,2013-03-15 17:50:00,
2013-03-15 14:05:00,69.4,44.0,29.89,SW,225,5.3,-999.0,40,-99.99,,,0.00,Acu-Link.com,2013-03-15 18:05:00,
2013-03-15 14:21:00,70.2,44.1,29.88,West,270,2.2,-999.0,39,-99.99,,,0.00,Acu-Link.com,2013-03-15 18:21:00,
2013-03-15 14:51:00,70.9,44.0,29.87,SSW,202,2.7,-999.0,38,-99.99,,,0.00,Acu-Link.com,2013-03-15 18:51:00,
2013-03-15 15:07:00,72.3,44.6,29.86,WSW,247,4.2,-999.0,37,-99.99,,,0.00,Acu-Link.com,2013-03-15 19:07:00,
2013-03-15 15:22:00,73.0,45.2,29.84,West,270,5.8,-999.0,37,-99.99,,,0.00,Acu-Link.com,2013-03-15 19:22:00,
2013-03-15 15:37:00,72.7,44.9,29.83,WSW,247,3.2,-999.0,37,-99.99,,,0.00,Acu-Link.com,2013-03-15 19:37:00,
2013-03-15 15:52:00,73.4,45.5,29.82,NW,315,4.2,-999.0,37,-99.99,,,0.00,Acu-Link.com,2013-03-15 19:52:00,
2013-03-15 16:07:00,73.6,45.7,29.81,SW,225,4.7,-999.0,37,-99.99,,,0.00,Acu-Link.com,2013-03-15 20:07:00,
2013-03-15 16:22:00,75.7,46.8,29.81,NNW,337,3.7,-999.0,36,-99.99,,,0.00,Acu-Link.com,2013-03-15 20:22:00,
2013-03-15 16:38:00,74.1,46.2,29.80,NNE,22,2.7,-999.0,37,-99.99,,,0.00,Acu-Link.com,2013-03-15 20:38:00,
2013-03-15 16:53:00,74.5,47.2,29.79,East,90,2.2,-999.0,38,-99.99,,,0.00,Acu-Link.com,2013-03-15 20:53:00,
2013-03-15 17:08:00,74.8,46.8,29.78,WSW,247,4.7,-999.0,37,-99.99,,,0.00,Acu-Link.com,2013-03-15 21:08:00,
2013-03-15 17:24:00,74.5,46.5,29.79,WNW,292,4.2,-999.0,37,-99.99,,,0.00,Acu-Link.com,2013-03-15 21:24:00,
2013-03-15 17:39:00,74.5,46.5,29.78,West,270,4.7,-999.0,37,-99.99,,,0.00,Acu-Link.com,2013-03-15 21:39:00,
2013-03-15 17:54:00,74.1,46.2,29.78,SW,225,2.2,-999.0,37,-99.99,,,0.00,Acu-Link.com,2013-03-15 21:54:00,
2013-03-15 18:09:00,73.8,46.6,29.77,WSW,247,3.2,-999.0,38,-99.99,,,0.00,Acu-Link.com,2013-03-15 22:09:00,
2013-03-15 18:25:00,73.2,46.1,29.77,NW,315,2.2,-999.0,38,-99.99,,,0.00,Acu-Link.com,2013-03-15 22:25:00,
2013-03-15 18:40:00,72.9,46.5,29.77,West,270,3.2,-999.0,39,-99.99,,,0.00,Acu-Link.com,2013-03-15 22:40:00,
2013-03-15 18:55:00,72.3,46.6,29.77,West,270,3.2,-999.0,40,-99.99,,,0.00,Acu-Link.com,2013-03-15 22:55:00,
2013-03-15 19:10:00,71.6,46.6,29.77,SSW,202,3.7,-999.0,41,-99.99,,,0.00,Acu-Link.com,2013-03-15 23:10:00,
2013-03-15 19:41:00,69.3,45.8,29.78,SW,225,2.2,-999.0,43,-99.99,,,0.00,Acu-Link.com,2013-03-15 23:41:00,
2013-03-15 19:56:00,68.2,45.4,29.78,SSW,202,2.2,-999.0,44,-99.99,,,0.00,Acu-Link.com,2013-03-15 23:56:00,
2013-03-15 20:12:00,66.9,45.4,29.78,SSW,202,2.2,-999.0,46,-99.99,,,0.00,Acu-Link.com,2013-03-16 00:12:00,
2013-03-15 20:42:00,63.3,44.9,29.78,South,180,0.0,-999.0,51,-99.99,,,0.00,Acu-Link.com,2013-03-16 00:42:00,
2013-03-15 20:58:00,61.9,45.1,29.79,SSW,202,0.0,-999.0,54,-99.99,,,0.00,Acu-Link.com,2013-03-16 00:58:00,
2013-03-15 21:13:00,61.2,45.4,29.79,South,180,0.0,-999.0,56,-99.99,,,0.00,Acu-Link.com,2013-03-16 01:13:00,
2013-03-15 21:28:00,60.8,45.0,29.78,South,180,0.0,-999.0,56,-99.99,,,0.00,Acu-Link.com,2013-03-16 01:28:00,
2013-03-15 21:43:00,59.4,45.1,29.78,SSE,157,0.0,-999.0,59,-99.99,,,0.00,Acu-Link.com,2013-03-16 01:43:00,
2013-03-15 21:59:00,60.6,46.2,29.79,South,180,2.7,-999.0,59,-99.99,,,0.00,Acu-Link.com,2013-03-16 01:59:00,
2013-03-15 22:14:00,60.8,45.9,29.80,South,180,2.2,-999.0,58,-99.99,,,0.00,Acu-Link.com,2013-03-16 02:14:00,
2013-03-15 22:29:00,61.0,46.1,29.79,SW,225,2.2,-999.0,58,-99.99,,,0.00,Acu-Link.com,2013-03-16 02:29:00,
2013-03-15 22:44:00,61.7,46.3,29.79,SW,225,3.2,-999.0,57,-99.99,,,0.00,Acu-Link.com,2013-03-16 02:44:00,
2013-03-15 23:00:00,62.2,46.3,29.79,South,180,2.2,-999.0,56,-99.99,,,0.00,Acu-Link.com,2013-03-16 03:00:00,
2013-03-15 23:15:00,61.9,46.5,29.79,SSW,202,3.2,-999.0,57,-99.99,,,0.00,Acu-Link.com,2013-03-16 03:15:00,
2013-03-15 23:30:00,61.7,46.3,29.79,SSW,202,2.7,-999.0,57,-99.99,,,0.00,Acu-Link.com,2013-03-16 03:30:00,
2013-03-15 23:46:00,61.2,46.3,29.78,SSW,202,2.7,-999.0,58,-99.99,,,0.00,Acu-Link.com,2013-03-16 03:46:00,